createdAt,value
2023-05-10T00:02:28.845Z,5.97
2023-05-10T00:04:59.026Z,5.38
2023-05-10T00:07:27.829Z,6.50
2023-05-10T00:09:56.803Z,6.32
2023-05-10T00:12:25.635Z,5.53
2023-05-10T00:14:54.609Z,6.95
2023-05-10T00:17:23.691Z,5.95
2023-05-10T00:19:52.740Z,6.57
2023-05-10T00:22:23.060Z,6.07
2023-05-10T00:24:51.849Z,7.05
2023-05-10T00:27:21.944Z,6.15
2023-05-10T00:29:50.670Z,6.32
2023-05-10T00:32:19.807Z,6.93
2023-05-10T00:34:48.659Z,6.80
2023-05-10T00:37:17.510Z,6.45
2023-05-10T00:39:47.701Z,6.80
2023-05-10T00:42:16.528Z,6.53
2023-05-10T00:44:45.548Z,7.30
2023-05-10T00:47:14.712Z,7.55
2023-05-10T00:49:43.832Z,6.93
2023-05-10T00:52:13.578Z,7.43
2023-05-10T00:54:42.717Z,7.15
2023-05-10T00:57:13.195Z,7.05
2023-05-10T00:59:42.233Z,8.10
2023-05-10T01:02:11.145Z,7.57
2023-05-10T01:04:40.746Z,9.25
2023-05-10T01:07:09.994Z,8.32
2023-05-10T01:09:39.732Z,7.88
2023-05-10T01:12:09.079Z,7.82
2023-05-10T01:14:39.772Z,7.50
2023-05-10T01:17:12.005Z,7.95
2023-05-10T01:19:41.368Z,7.95
2023-05-10T01:22:28.176Z,7.53
2023-05-10T01:25:22.025Z,7.10
2023-05-10T01:28:07.783Z,8.68
2023-05-10T01:31:10.757Z,8.32
2023-05-10T01:33:46.590Z,8.13
2023-05-10T01:36:27.258Z,9.48
2023-05-10T01:39:03.375Z,8.85
2023-05-10T01:41:42.459Z,8.07
2023-05-10T01:44:20.101Z,9.80
2023-05-10T01:46:54.845Z,9.43
2023-05-10T01:49:28.378Z,7.97
2023-05-10T01:52:02.626Z,9.57
2023-05-10T01:54:32.378Z,9.85
2023-05-10T01:57:05.414Z,8.70
2023-05-10T01:59:40.285Z,9.38
2023-05-10T02:02:12.794Z,8.73
2023-05-10T02:04:44.389Z,8.05
2023-05-10T02:07:14.503Z,8.32
2023-05-10T02:09:48.524Z,8.95
2023-05-10T02:12:18.902Z,8.27
2023-05-10T02:14:49.648Z,9.25
2023-05-10T02:17:19.166Z,8.65
2023-05-10T02:19:54.926Z,8.13
2023-05-10T02:22:25.080Z,8.30
2023-05-10T02:24:57.238Z,8.07
2023-05-10T02:27:27.963Z,8.98
2023-05-10T02:29:57.327Z,8.70
2023-05-10T02:32:28.377Z,8.25
2023-05-10T02:34:59.490Z,7.93
2023-05-10T02:37:29.276Z,8.48
2023-05-10T02:39:59.274Z,8.35
2023-05-10T02:42:29.840Z,8.50
2023-05-10T02:45:04.134Z,7.85
2023-05-10T02:47:33.179Z,6.95
2023-05-10T02:50:03.466Z,8.23
2023-05-10T02:52:41.726Z,7.88
2023-05-10T02:55:13.750Z,8.23
2023-05-10T02:57:48.525Z,7.82
2023-05-10T03:00:17.838Z,8.18
2023-05-10T03:02:47.225Z,7.43
2023-05-10T03:05:18.069Z,6.80
2023-05-10T03:07:47.484Z,7.10
2023-05-10T03:10:16.792Z,8.00
2023-05-10T03:13:13.194Z,7.97
2023-05-10T03:15:52.987Z,8.52
2023-05-10T03:18:25.785Z,6.82
2023-05-10T03:21:04.100Z,6.95
2023-05-10T03:23:39.590Z,7.00
2023-05-10T03:26:09.536Z,7.10
2023-05-10T03:28:39.674Z,7.40
2023-05-10T03:31:09.598Z,7.78
2023-05-10T03:33:48.845Z,8.25
2023-05-10T03:36:21.780Z,7.72
2023-05-10T03:38:51.051Z,8.13
2023-05-10T03:41:21.584Z,9.73
2023-05-10T03:43:50.645Z,9.55
2023-05-10T03:46:19.819Z,9.82
2023-05-10T03:48:48.832Z,9.38
2023-05-10T03:51:17.731Z,8.88
2023-05-10T03:53:48.176Z,10.10
2023-05-10T03:56:16.820Z,10.70
2023-05-10T03:58:45.886Z,11.07
2023-05-10T04:01:14.812Z,9.50
2023-05-10T04:03:43.813Z,11.70
2023-05-10T04:06:14.610Z,9.57
2023-05-10T04:08:45.484Z,10.57
2023-05-10T04:11:15.605Z,10.25
2023-05-10T04:13:44.819Z,10.73
2023-05-10T04:16:13.751Z,10.77
2023-05-10T04:18:42.505Z,11.40
2023-05-10T04:21:14.563Z,10.90
2023-05-10T04:23:43.292Z,11.65
2023-05-10T04:26:12.360Z,11.75
2023-05-10T04:28:42.555Z,12.98
2023-05-10T04:31:12.470Z,10.82
2023-05-10T04:33:41.409Z,12.07
2023-05-10T04:36:10.818Z,11.40
2023-05-10T04:38:39.792Z,13.02
2023-05-10T04:41:09.625Z,10.93
2023-05-10T04:43:39.493Z,12.65
2023-05-10T04:46:09.748Z,12.60
2023-05-10T04:48:38.650Z,13.07
2023-05-10T04:51:07.621Z,11.55
2023-05-10T04:53:36.867Z,13.23
2023-05-10T04:56:06.202Z,12.75
2023-05-10T04:58:35.565Z,11.55
2023-05-10T05:01:11.559Z,12.70
2023-05-10T05:03:40.523Z,13.02
2023-05-10T05:06:09.742Z,13.88
2023-05-10T05:08:38.554Z,12.82
2023-05-10T05:11:07.594Z,13.48
2023-05-10T05:13:36.340Z,13.70
2023-05-10T05:16:05.815Z,13.30
2023-05-10T05:18:36.070Z,12.32
2023-05-10T05:21:05.101Z,12.77
2023-05-10T05:23:33.982Z,14.02
2023-05-10T05:26:02.791Z,13.60
2023-05-10T05:28:33.988Z,13.90
2023-05-10T05:31:02.908Z,12.63
2023-05-10T05:33:31.711Z,12.65
2023-05-10T05:36:03.142Z,13.75
2023-05-10T05:38:32.104Z,10.77
2023-05-10T05:41:00.881Z,9.00
2023-05-10T05:43:29.830Z,8.13
2023-05-10T05:45:59.177Z,8.23
2023-05-10T05:48:28.261Z,8.05
2023-05-10T05:50:58.183Z,7.32
2023-05-10T05:53:28.361Z,9.07
2023-05-10T05:55:58.956Z,8.50
2023-05-10T05:58:29.132Z,7.82
2023-05-10T06:00:58.406Z,7.03
2023-05-10T06:03:27.440Z,6.28
2023-05-10T06:05:56.475Z,8.40
2023-05-10T06:08:25.328Z,8.45
2023-05-10T06:10:55.533Z,9.10
2023-05-10T06:13:24.267Z,9.15
2023-05-10T06:15:53.424Z,9.75
2023-05-10T06:18:22.440Z,8.40
2023-05-10T06:20:52.791Z,8.27
2023-05-10T06:23:22.088Z,8.25
2023-05-10T06:25:50.952Z,7.97
2023-05-10T06:28:21.288Z,7.50
2023-05-10T06:30:50.151Z,6.97
2023-05-10T06:33:19.067Z,6.47
2023-05-10T06:35:48.113Z,6.40
2023-05-10T06:38:17.139Z,4.78
2023-05-10T06:40:46.472Z,4.35
2023-05-10T06:43:15.310Z,4.65
2023-05-10T06:45:45.755Z,4.10
2023-05-10T06:48:14.736Z,3.72
2023-05-10T06:50:43.886Z,4.70
2023-05-10T06:53:12.912Z,3.47
2023-05-10T06:55:42.120Z,5.57
2023-05-10T06:58:10.929Z,4.32
2023-05-10T07:00:41.522Z,4.28
2023-05-10T07:03:12.171Z,3.88
2023-05-10T07:05:41.252Z,3.97
2023-05-10T07:08:10.319Z,4.10
2023-05-10T07:10:39.245Z,4.97
2023-05-10T07:13:08.139Z,4.45
2023-05-10T07:15:37.356Z,5.05
2023-05-10T07:18:07.545Z,5.70
2023-05-10T07:20:38.143Z,5.53
2023-05-10T07:23:07.209Z,6.30
2023-05-10T07:25:36.074Z,5.82
2023-05-10T07:28:05.330Z,5.22
2023-05-10T07:30:34.225Z,5.93
2023-05-10T07:33:03.192Z,6.50
2023-05-10T07:35:32.209Z,5.65
2023-05-10T07:38:02.842Z,5.40
2023-05-10T07:40:32.269Z,8.38
2023-05-10T07:43:02.833Z,6.70
2023-05-10T07:45:32.036Z,6.93
2023-05-10T07:48:01.314Z,6.90
2023-05-10T07:50:30.672Z,7.00
2023-05-10T07:53:01.452Z,6.63
2023-05-10T07:55:30.644Z,6.43
2023-05-10T07:58:02.004Z,6.43
2023-05-10T08:00:30.814Z,8.00
2023-05-10T08:03:00.006Z,5.60
2023-05-10T08:05:29.037Z,5.57
2023-05-10T08:07:58.289Z,5.22
2023-05-10T08:10:28.678Z,6.25
2023-05-10T08:12:59.421Z,5.43
2023-05-10T08:15:28.502Z,5.70
2023-05-10T08:17:57.578Z,5.32
2023-05-10T08:20:26.705Z,5.60
2023-05-10T08:22:56.311Z,5.72
2023-05-10T08:25:25.216Z,5.47
2023-05-10T08:27:55.456Z,5.38
2023-05-10T08:30:24.636Z,5.40
2023-05-10T08:32:53.647Z,4.72
2023-05-10T08:35:22.699Z,5.25
2023-05-10T08:37:51.588Z,4.95
2023-05-10T08:40:22.364Z,5.05
2023-05-10T08:42:57.650Z,4.38
2023-05-10T08:45:29.491Z,4.72
2023-05-10T08:47:58.610Z,4.72
2023-05-10T08:50:28.117Z,3.90
2023-05-10T08:52:59.851Z,4.03
2023-05-10T08:55:29.106Z,5.50
2023-05-10T08:57:59.398Z,4.47
2023-05-10T09:00:28.462Z,4.45
2023-05-10T09:02:58.184Z,3.45
2023-05-10T09:05:27.486Z,4.40
2023-05-10T09:07:56.537Z,3.97
2023-05-10T09:10:28.387Z,4.00
2023-05-10T09:12:59.744Z,4.07
2023-05-10T09:15:28.591Z,4.10
2023-05-10T09:17:59.178Z,5.03
2023-05-10T09:20:28.428Z,5.20
2023-05-10T09:22:57.200Z,4.65
2023-05-10T09:25:26.040Z,4.53
2023-05-10T09:27:55.227Z,5.03
2023-05-10T09:30:30.158Z,4.07
2023-05-10T09:33:00.523Z,4.05
2023-05-10T09:35:31.883Z,4.70
2023-05-10T09:38:07.706Z,3.58
2023-05-10T09:40:36.578Z,3.80
2023-05-10T09:43:08.166Z,3.40
2023-05-10T09:45:39.281Z,3.60
2023-05-10T09:48:08.900Z,3.50
2023-05-10T09:50:37.877Z,3.47
2023-05-10T09:53:06.795Z,3.35
2023-05-10T09:55:45.291Z,3.15
2023-05-10T10:00:48.924Z,4.25
2023-05-10T10:03:18.988Z,3.03
2023-05-10T10:05:49.255Z,3.25
2023-05-10T10:08:18.755Z,3.80
2023-05-10T10:10:48.681Z,3.33
2023-05-10T10:13:18.241Z,3.20
2023-05-10T10:15:52.061Z,4.05
2023-05-10T10:18:24.950Z,4.30
2023-05-10T10:20:54.902Z,4.30
2023-05-10T10:23:24.512Z,3.45
2023-05-10T10:25:55.248Z,3.30
2023-05-10T10:28:29.962Z,3.55
2023-05-10T10:31:14.757Z,3.50
2023-05-10T10:33:58.856Z,3.45
2023-05-10T10:36:29.169Z,3.65
2023-05-10T10:39:01.642Z,3.92
2023-05-10T10:44:25.820Z,13.25
2023-05-10T10:47:09.591Z,3.70
2023-05-10T10:49:50.433Z,3.38
2023-05-10T10:52:27.957Z,3.63
2023-05-10T10:55:02.249Z,3.50
2023-05-10T10:57:34.646Z,3.40
2023-05-10T11:02:54.317Z,2.85
2023-05-10T11:05:28.345Z,3.35
2023-05-10T11:07:58.574Z,3.58
2023-05-10T11:10:29.796Z,3.35
2023-05-10T11:13:03.085Z,3.33
2023-05-10T11:15:32.706Z,3.28
2023-05-10T11:18:19.270Z,4.00
2023-05-10T11:20:52.892Z,3.97
2023-05-10T11:23:22.366Z,3.83
2023-05-10T11:25:52.034Z,3.53
2023-05-10T11:28:21.408Z,4.15
2023-05-10T11:30:50.474Z,3.65
2023-05-10T11:33:22.105Z,3.67
2023-05-10T11:35:51.000Z,3.35
2023-05-10T11:38:20.184Z,4.18
2023-05-10T11:40:49.181Z,4.85
2023-05-10T11:43:18.312Z,6.40
2023-05-10T11:45:47.880Z,4.43
2023-05-10T11:48:17.965Z,4.53
2023-05-10T11:50:48.898Z,4.70
2023-05-10T11:53:17.816Z,6.13
2023-05-10T11:55:46.738Z,3.63
2023-05-10T11:58:15.776Z,4.03
2023-05-10T12:00:44.832Z,3.72
2023-05-10T12:03:13.993Z,5.32
2023-05-10T12:05:43.400Z,5.65
2023-05-10T12:08:18.409Z,4.00
2023-05-10T12:10:47.335Z,4.00
2023-05-10T12:13:16.952Z,4.43
2023-05-10T12:15:46.422Z,3.83
2023-05-10T12:18:16.353Z,4.45
2023-05-10T12:20:45.150Z,5.07
2023-05-10T12:23:15.111Z,6.00
2023-05-10T12:25:46.038Z,4.28
2023-05-10T12:28:15.006Z,4.72
2023-05-10T12:30:43.849Z,4.65
2023-05-10T12:33:16.096Z,4.43
2023-05-10T12:38:31.887Z,4.00
2023-05-10T12:41:03.461Z,3.90
2023-05-10T12:43:32.728Z,4.68
2023-05-10T12:46:07.546Z,4.72
2023-05-10T12:48:37.265Z,5.40
2023-05-10T12:51:10.254Z,4.72
2023-05-10T12:53:42.769Z,4.65
2023-05-10T12:56:14.802Z,4.05
2023-05-10T12:58:49.176Z,4.82
2023-05-10T13:01:18.643Z,5.43
2023-05-10T13:03:48.166Z,6.15
2023-05-10T13:06:17.047Z,5.30
2023-05-10T13:08:46.020Z,5.18
2023-05-10T13:11:18.066Z,5.22
2023-05-10T13:13:47.166Z,5.10
2023-05-10T13:16:16.164Z,4.75
2023-05-10T13:18:45.256Z,10.00
2023-05-10T13:21:14.253Z,5.28
2023-05-10T13:23:43.286Z,3.97
2023-05-10T13:26:12.325Z,3.83
2023-05-10T13:28:42.648Z,3.30
2023-05-10T13:31:11.750Z,5.32
2023-05-10T13:33:40.769Z,3.78
2023-05-10T13:36:10.008Z,7.00
2023-05-10T13:38:38.975Z,3.67
2023-05-10T13:41:07.966Z,3.72
2023-05-10T13:43:37.198Z,4.75
2023-05-10T13:46:07.698Z,4.78
2023-05-10T13:48:39.122Z,4.22
2023-05-10T13:51:08.590Z,4.38
2023-05-10T13:53:37.491Z,5.10
2023-05-10T13:56:06.738Z,5.22
2023-05-10T13:58:36.835Z,5.72
2023-05-10T14:01:07.828Z,5.72
2023-05-10T14:03:37.051Z,4.93
2023-05-10T14:06:08.404Z,5.03
2023-05-10T14:08:38.022Z,5.00
2023-05-10T14:11:07.611Z,5.68
2023-05-10T14:13:36.902Z,5.90
2023-05-10T14:16:07.777Z,6.32
2023-05-10T14:18:36.711Z,5.75
2023-05-10T14:21:06.616Z,6.63
2023-05-10T14:23:35.749Z,6.32
2023-05-10T14:26:05.059Z,7.30
2023-05-10T14:28:33.911Z,7.47
2023-05-10T14:31:03.448Z,7.88
2023-05-10T14:33:33.661Z,8.52
2023-05-10T14:36:04.356Z,8.65
2023-05-10T14:38:33.099Z,9.73
2023-05-10T14:41:02.330Z,9.80
2023-05-10T14:43:31.522Z,7.47
2023-05-10T14:46:00.622Z,8.07
2023-05-10T14:48:29.631Z,8.43
2023-05-10T14:50:59.876Z,8.20
2023-05-10T14:53:28.733Z,8.43
2023-05-10T14:55:57.512Z,8.60
2023-05-10T14:58:26.441Z,8.45
2023-05-10T15:00:55.459Z,9.95
2023-05-10T15:03:24.580Z,9.15
2023-05-10T15:05:54.184Z,9.00
2023-05-10T15:08:24.731Z,8.73
2023-05-10T15:10:56.507Z,7.30
2023-05-10T15:13:25.415Z,6.63
2023-05-10T15:15:55.190Z,6.68
2023-05-10T15:18:26.976Z,6.43
2023-05-10T15:20:56.374Z,6.72
2023-05-10T15:23:26.947Z,5.60
2023-05-10T15:25:56.881Z,5.05
2023-05-10T15:28:25.953Z,3.97
2023-05-10T15:30:55.103Z,3.58
2023-05-10T15:33:24.302Z,3.03
2023-05-10T15:35:54.664Z,2.90
2023-05-10T15:38:23.612Z,2.70
2023-05-10T15:40:57.280Z,3.72
2023-05-10T15:43:26.329Z,3.08
2023-05-10T15:45:55.211Z,2.80
2023-05-10T15:48:24.266Z,3.75
2023-05-10T15:50:53.739Z,3.25
2023-05-10T15:53:22.765Z,3.45
2023-05-10T15:55:53.047Z,3.17
2023-05-10T15:58:21.998Z,3.47
2023-05-10T16:00:50.752Z,6.75
2023-05-10T16:03:19.691Z,3.00
2023-05-10T16:05:48.619Z,3.67
2023-05-10T16:08:17.414Z,4.00
2023-05-10T16:10:46.338Z,4.03
2023-05-10T16:13:16.960Z,3.83
2023-05-10T16:15:45.971Z,5.35
2023-05-10T16:18:14.819Z,4.22
2023-05-10T16:20:43.706Z,4.60
2023-05-10T16:23:12.945Z,6.90
2023-05-10T16:25:42.289Z,5.28
2023-05-10T16:28:11.220Z,5.97
2023-05-10T16:30:41.836Z,6.18
2023-05-10T16:33:10.857Z,5.55
2023-05-10T16:35:39.915Z,6.35
2023-05-10T16:38:08.986Z,6.65
2023-05-10T16:40:37.818Z,6.07
2023-05-10T16:43:06.709Z,6.22
2023-05-10T16:45:35.983Z,6.15
2023-05-10T16:48:07.117Z,7.80
2023-05-10T16:50:36.059Z,6.65
2023-05-10T16:53:04.947Z,7.22
2023-05-10T16:55:33.665Z,7.13
2023-05-10T16:58:03.246Z,6.95
2023-05-10T17:00:32.207Z,8.13
2023-05-10T17:03:01.341Z,7.25
2023-05-10T17:05:31.792Z,7.00
2023-05-10T17:08:01.016Z,7.95
2023-05-10T17:10:30.016Z,7.38
2023-05-10T17:12:59.010Z,7.60
2023-05-10T17:15:28.057Z,7.97
2023-05-10T17:17:57.747Z,7.88
2023-05-10T17:20:26.621Z,8.68
2023-05-10T17:22:56.925Z,9.25
2023-05-10T17:25:25.988Z,10.05
2023-05-10T17:27:54.899Z,8.52
2023-05-10T17:30:26.449Z,8.63
2023-05-10T17:32:55.558Z,9.13
2023-05-10T17:35:24.477Z,9.85
2023-05-10T17:37:53.236Z,8.88
2023-05-10T17:40:23.523Z,8.82
2023-05-10T17:42:52.845Z,9.65
2023-05-10T17:45:21.953Z,8.20
2023-05-10T17:47:52.198Z,10.10
2023-05-10T17:50:21.298Z,10.45
2023-05-10T17:52:51.466Z,8.43
2023-05-10T17:55:20.640Z,9.30
2023-05-10T17:57:52.254Z,9.20
2023-05-10T18:00:21.479Z,7.88
2023-05-10T18:02:50.859Z,8.80
2023-05-10T18:05:20.390Z,8.88
2023-05-10T18:07:51.409Z,9.13
2023-05-10T18:10:20.437Z,9.40
2023-05-10T18:12:52.420Z,9.40
2023-05-10T18:15:21.449Z,10.27
2023-05-10T18:17:51.152Z,10.45
2023-05-10T18:20:20.300Z,8.82
2023-05-10T18:22:49.270Z,8.90
2023-05-10T18:25:18.410Z,10.00
2023-05-10T18:27:48.341Z,10.98
2023-05-10T18:30:19.071Z,11.10
2023-05-10T18:32:48.156Z,11.40
2023-05-10T18:35:17.215Z,11.60
2023-05-10T18:37:46.224Z,13.15
2023-05-10T18:40:15.146Z,12.45
2023-05-10T18:42:46.679Z,14.38
2023-05-10T18:45:16.204Z,14.52
2023-05-10T18:47:46.888Z,15.50
2023-05-10T18:50:17.170Z,15.25
2023-05-10T18:52:46.521Z,17.25
2023-05-10T18:55:15.992Z,17.73
2023-05-10T18:57:45.438Z,19.55
2023-05-10T19:00:15.143Z,19.80
2023-05-10T19:02:44.175Z,19.50
2023-05-10T19:05:15.980Z,17.38
2023-05-10T19:07:45.487Z,18.25
2023-05-10T19:10:14.848Z,16.33
2023-05-10T19:12:43.751Z,17.17
2023-05-10T19:15:13.053Z,15.35
2023-05-10T19:17:42.191Z,16.25
2023-05-10T19:20:12.195Z,16.45
2023-05-10T19:22:54.848Z,15.80
2023-05-10T19:25:29.662Z,15.60
2023-05-10T19:27:59.117Z,13.80
2023-05-10T19:30:28.867Z,15.15
2023-05-10T19:32:58.061Z,15.48
2023-05-10T19:35:27.100Z,13.88
2023-05-10T19:37:57.560Z,12.50
2023-05-10T19:40:26.652Z,13.32
2023-05-10T19:42:57.208Z,13.15
2023-05-10T19:45:27.037Z,14.48
2023-05-10T19:47:56.918Z,12.57
2023-05-10T19:50:26.173Z,13.60
2023-05-10T19:52:58.557Z,12.27
2023-05-10T19:55:29.181Z,12.38
2023-05-10T19:58:00.511Z,13.02
2023-05-10T20:00:29.955Z,13.88
2023-05-10T20:02:59.959Z,11.55
2023-05-10T20:05:29.009Z,12.48
2023-05-10T20:08:00.133Z,11.45
2023-05-10T20:10:29.054Z,10.38
2023-05-10T20:12:59.121Z,11.13
2023-05-10T20:15:30.126Z,10.77
2023-05-10T20:17:59.192Z,11.65
2023-05-10T20:20:28.272Z,10.70
2023-05-10T20:22:57.182Z,10.80
2023-05-10T20:25:27.725Z,11.70
2023-05-10T20:27:56.643Z,11.07
2023-05-10T20:30:25.705Z,11.07
2023-05-10T20:32:55.344Z,11.27
2023-05-10T20:35:24.250Z,10.52
2023-05-10T20:37:53.133Z,10.30
2023-05-10T20:40:22.283Z,11.40
2023-05-10T20:42:54.179Z,11.18
2023-05-10T20:45:23.074Z,10.95
2023-05-10T20:47:52.448Z,12.70
2023-05-10T20:50:21.344Z,12.10
2023-05-10T20:52:52.301Z,11.50
2023-05-10T20:55:24.686Z,11.45
2023-05-10T20:57:55.756Z,11.52
2023-05-10T21:00:24.730Z,11.95
2023-05-10T21:02:54.590Z,11.60
2023-05-10T21:05:23.936Z,11.15
2023-05-10T21:07:54.237Z,11.20
2023-05-10T21:10:23.336Z,10.75
2023-05-10T21:12:52.150Z,11.10
2023-05-10T21:15:24.529Z,11.18
2023-05-10T21:20:23.553Z,9.77
2023-05-10T21:22:54.049Z,10.40
2023-05-10T21:25:23.803Z,11.57
2023-05-10T21:27:52.951Z,11.13
2023-05-10T21:30:23.492Z,10.95
2023-05-10T21:32:59.704Z,12.00
2023-05-10T21:35:28.929Z,11.60
2023-05-10T21:37:57.879Z,11.52
2023-05-10T21:40:26.737Z,11.77
2023-05-10T21:42:55.665Z,10.68
2023-05-10T21:45:26.226Z,12.85
2023-05-10T21:47:55.326Z,12.10
2023-05-10T21:50:24.130Z,12.30
2023-05-10T21:52:53.056Z,13.27
2023-05-10T21:55:24.380Z,15.13
2023-05-10T21:57:53.225Z,15.38
2023-05-10T22:00:22.219Z,15.75
2023-05-10T22:02:54.007Z,17.23
2023-05-10T22:05:23.026Z,17.13
2023-05-10T22:07:51.933Z,15.82
2023-05-10T22:10:20.960Z,16.33
2023-05-10T22:12:51.804Z,16.23
2023-05-10T22:15:20.760Z,16.33
2023-05-10T22:17:49.889Z,16.40
2023-05-10T22:20:21.078Z,14.38
2023-05-10T22:22:50.333Z,15.88
2023-05-10T22:25:19.396Z,14.40
2023-05-10T22:27:48.478Z,15.10
2023-05-10T22:30:17.643Z,14.20
2023-05-10T22:32:47.310Z,13.73
2023-05-10T22:35:16.297Z,13.80
2023-05-10T22:37:46.557Z,14.60
2023-05-10T22:40:15.386Z,13.18
2023-05-10T22:42:44.639Z,13.43
2023-05-10T22:45:13.675Z,13.02
2023-05-10T22:47:42.876Z,12.05
2023-05-10T22:50:12.960Z,12.50
2023-05-10T22:52:41.721Z,12.20
2023-05-10T22:55:12.350Z,11.55
2023-05-10T22:57:41.358Z,11.82
2023-05-10T23:00:11.271Z,11.40
2023-05-10T23:02:40.515Z,11.43
2023-05-10T23:05:10.619Z,10.40
2023-05-10T23:07:39.472Z,11.63
2023-05-10T23:10:08.803Z,11.02
2023-05-10T23:12:38.849Z,11.50
2023-05-10T23:15:08.589Z,13.02
2023-05-10T23:17:37.234Z,13.98
2023-05-10T23:20:07.254Z,13.00
2023-05-10T23:22:36.154Z,13.52
2023-05-10T23:25:05.371Z,12.98
2023-05-10T23:27:34.379Z,12.23
2023-05-10T23:30:05.023Z,11.80
2023-05-10T23:32:33.966Z,12.20
2023-05-10T23:35:02.713Z,12.45
2023-05-10T23:37:31.687Z,10.73
2023-05-10T23:40:00.725Z,10.35
2023-05-10T23:42:33.819Z,11.27
2023-05-10T23:45:04.674Z,10.02
2023-05-10T23:47:33.572Z,10.10
2023-05-10T23:50:02.807Z,10.93
2023-05-10T23:52:31.671Z,10.27
2023-05-10T23:55:00.640Z,10.52
2023-05-10T23:57:29.510Z,11.00
2023-05-10T23:59:58.397Z,11.15
